sensor_id;sensor_type;location;lat;lon;timestamp;P1;durP1;ratioP1;P2;durP2;ratioP2
3175;SDS011;1599;51.564;6.990;2023-11-18T00:01:55;361.80;;;62.40;;
3175;SDS011;1599;51.564;6.990;2023-11-18T00:04:21;501.50;;;88.47;;
3175;SDS011;1599;51.564;6.990;2023-11-18T00:06:47;450.07;;;71.40;;
3175;SDS011;1599;51.564;6.990;2023-11-18T00:09:13;464.83;;;70.20;;
3175;SDS011;1599;51.564;6.990;2023-11-18T00:11:42;341.67;;;58.90;;
3175;SDS011;1599;51.564;6.990;2023-11-18T00:14:08;444.83;;;71.50;;
3175;SDS011;1599;51.564;6.990;2023-11-18T00:16:38;286.13;;;55.47;;
3175;SDS011;1599;51.564;6.990;2023-11-18T00:19:04;244.30;;;47.67;;
3175;SDS011;1599;51.564;6.990;2023-11-18T00:21:34;436.53;;;61.37;;
3175;SDS011;1599;51.564;6.990;2023-11-18T00:24:01;523.10;;;72.73;;
3175;SDS011;1599;51.564;6.990;2023-11-18T00:26:27;386.40;;;56.87;;
3175;SDS011;1599;51.564;6.990;2023-11-18T00:28:54;469.27;;;70.87;;
3175;SDS011;1599;51.564;6.990;2023-11-18T00:31:19;336.43;;;52.83;;
3175;SDS011;1599;51.564;6.990;2023-11-18T00:33:46;366.57;;;50.60;;
3175;SDS011;1599;51.564;6.990;2023-11-18T00:36:12;308.27;;;49.03;;
3175;SDS011;1599;51.564;6.990;2023-11-18T00:38:37;492.20;;;70.07;;
3175;SDS011;1599;51.564;6.990;2023-11-18T00:41:05;351.13;;;49.27;;
3175;SDS011;1599;51.564;6.990;2023-11-18T00:43:31;372.67;;;61.70;;
3175;SDS011;1599;51.564;6.990;2023-11-18T00:45:57;346.87;;;55.63;;
3175;SDS011;1599;51.564;6.990;2023-11-18T00:48:24;315.83;;;48.70;;
3175;SDS011;1599;51.564;6.990;2023-11-18T00:50:50;329.27;;;49.30;;
3175;SDS011;1599;51.564;6.990;2023-11-18T00:53:17;334.67;;;50.37;;
3175;SDS011;1599;51.564;6.990;2023-11-18T00:55:42;311.47;;;45.77;;
3175;SDS011;1599;51.564;6.990;2023-11-18T00:58:08;362.07;;;57.97;;
3175;SDS011;1599;51.564;6.990;2023-11-18T01:00:34;293.80;;;46.87;;
3175;SDS011;1599;51.564;6.990;2023-11-18T01:03:01;357.43;;;52.60;;
3175;SDS011;1599;51.564;6.990;2023-11-18T01:05:28;352.33;;;56.37;;
3175;SDS011;1599;51.564;6.990;2023-11-18T01:07:56;291.20;;;48.40;;
3175;SDS011;1599;51.564;6.990;2023-11-18T01:10:23;534.70;;;73.10;;
3175;SDS011;1599;51.564;6.990;2023-11-18T01:12:48;311.13;;;52.97;;
3175;SDS011;1599;51.564;6.990;2023-11-18T01:15:14;276.40;;;47.70;;
3175;SDS011;1599;51.564;6.990;2023-11-18T01:17:40;264.50;;;46.40;;
3175;SDS011;1599;51.564;6.990;2023-11-18T01:20:06;207.03;;;40.37;;
3175;SDS011;1599;51.564;6.990;2023-11-18T01:22:36;229.50;;;43.23;;
3175;SDS011;1599;51.564;6.990;2023-11-18T01:25:03;160.30;;;39.90;;
3175;SDS011;1599;51.564;6.990;2023-11-18T01:27:31;195.57;;;40.23;;
3175;SDS011;1599;51.564;6.990;2023-11-18T01:29:58;159.17;;;36.67;;
3175;SDS011;1599;51.564;6.990;2023-11-18T01:32:25;153.07;;;38.00;;
3175;SDS011;1599;51.564;6.990;2023-11-18T01:34:51;194.63;;;40.40;;
3175;SDS011;1599;51.564;6.990;2023-11-18T01:37:16;174.00;;;39.50;;
3175;SDS011;1599;51.564;6.990;2023-11-18T01:39:42;156.47;;;35.30;;
3175;SDS011;1599;51.564;6.990;2023-11-18T01:42:08;144.23;;;36.63;;
3175;SDS011;1599;51.564;6.990;2023-11-18T01:44:34;102.70;;;30.50;;
3175;SDS011;1599;51.564;6.990;2023-11-18T01:47:01;139.07;;;34.77;;
3175;SDS011;1599;51.564;6.990;2023-11-18T01:49:31;122.43;;;34.30;;
3175;SDS011;1599;51.564;6.990;2023-11-18T01:52:01;117.70;;;34.33;;
3175;SDS011;1599;51.564;6.990;2023-11-18T01:54:27;110.73;;;34.17;;
3175;SDS011;1599;51.564;6.990;2023-11-18T01:56:55;122.30;;;36.07;;
3175;SDS011;1599;51.564;6.990;2023-11-18T01:59:21;89.93;;;29.60;;
3175;SDS011;1599;51.564;6.990;2023-11-18T02:01:48;123.17;;;35.83;;
3175;SDS011;1599;51.564;6.990;2023-11-18T02:04:17;90.93;;;28.53;;
3175;SDS011;1599;51.564;6.990;2023-11-18T02:06:45;106.70;;;33.07;;
3175;SDS011;1599;51.564;6.990;2023-11-18T02:09:13;103.43;;;32.03;;
3175;SDS011;1599;51.564;6.990;2023-11-18T02:12:29;85.87;;;29.40;;
3175;SDS011;1599;51.564;6.990;2023-11-18T02:14:31;83.33;;;29.07;;
3175;SDS011;1599;51.564;6.990;2023-11-18T02:17:02;98.50;;;31.73;;
3175;SDS011;1599;51.564;6.990;2023-11-18T02:19:30;85.83;;;28.67;;
3175;SDS011;1599;51.564;6.990;2023-11-18T02:21:56;122.30;;;31.23;;
3175;SDS011;1599;51.564;6.990;2023-11-18T02:24:26;75.37;;;27.23;;
3175;SDS011;1599;51.564;6.990;2023-11-18T02:27:02;71.47;;;26.37;;
3175;SDS011;1599;51.564;6.990;2023-11-18T02:29:32;72.87;;;27.63;;
3175;SDS011;1599;51.564;6.990;2023-11-18T02:32:23;84.40;;;29.40;;
3175;SDS011;1599;51.564;6.990;2023-11-18T02:37:49;92.10;;;27.20;;
3175;SDS011;1599;51.564;6.990;2023-11-18T02:40:39;75.60;;;27.37;;
3175;SDS011;1599;51.564;6.990;2023-11-18T02:43:08;68.43;;;27.40;;
3175;SDS011;1599;51.564;6.990;2023-11-18T02:45:35;78.67;;;28.17;;
3175;SDS011;1599;51.564;6.990;2023-11-18T02:48:02;66.30;;;27.73;;
3175;SDS011;1599;51.564;6.990;2023-11-18T02:50:31;82.97;;;29.90;;
3175;SDS011;1599;51.564;6.990;2023-11-18T02:52:57;79.27;;;27.00;;
3175;SDS011;1599;51.564;6.990;2023-11-18T02:55:23;90.80;;;27.70;;
3175;SDS011;1599;51.564;6.990;2023-11-18T02:57:50;103.90;;;33.70;;
3175;SDS011;1599;51.564;6.990;2023-11-18T03:00:17;96.13;;;31.40;;
3175;SDS011;1599;51.564;6.990;2023-11-18T03:02:49;95.53;;;27.00;;
3175;SDS011;1599;51.564;6.990;2023-11-18T03:05:17;101.60;;;29.97;;
3175;SDS011;1599;51.564;6.990;2023-11-18T03:07:43;85.03;;;28.57;;
3175;SDS011;1599;51.564;6.990;2023-11-18T03:10:12;102.07;;;27.67;;
3175;SDS011;1599;51.564;6.990;2023-11-18T03:12:51;110.00;;;31.60;;
3175;SDS011;1599;51.564;6.990;2023-11-18T03:15:19;90.50;;;30.97;;
3175;SDS011;1599;51.564;6.990;2023-11-18T03:17:46;92.30;;;29.70;;
3175;SDS011;1599;51.564;6.990;2023-11-18T03:20:15;95.77;;;30.87;;
3175;SDS011;1599;51.564;6.990;2023-11-18T03:22:45;86.53;;;30.00;;
3175;SDS011;1599;51.564;6.990;2023-11-18T03:25:12;71.23;;;25.73;;
3175;SDS011;1599;51.564;6.990;2023-11-18T03:27:39;67.97;;;27.30;;
3175;SDS011;1599;51.564;6.990;2023-11-18T03:30:05;91.97;;;31.17;;
3175;SDS011;1599;51.564;6.990;2023-11-18T03:32:33;82.27;;;27.70;;
3175;SDS011;1599;51.564;6.990;2023-11-18T03:35:06;94.20;;;29.83;;
3175;SDS011;1599;51.564;6.990;2023-11-18T03:37:36;106.40;;;28.50;;
3175;SDS011;1599;51.564;6.990;2023-11-18T03:40:12;89.57;;;29.77;;
3175;SDS011;1599;51.564;6.990;2023-11-18T03:42:39;78.50;;;28.23;;
3175;SDS011;1599;51.564;6.990;2023-11-18T03:45:08;101.37;;;29.63;;
3175;SDS011;1599;51.564;6.990;2023-11-18T03:47:35;95.93;;;27.30;;
3175;SDS011;1599;51.564;6.990;2023-11-18T03:50:01;82.27;;;27.33;;
3175;SDS011;1599;51.564;6.990;2023-11-18T03:52:27;90.23;;;28.83;;
3175;SDS011;1599;51.564;6.990;2023-11-18T03:54:54;116.70;;;30.77;;
3175;SDS011;1599;51.564;6.990;2023-11-18T03:57:20;86.37;;;28.03;;
3175;SDS011;1599;51.564;6.990;2023-11-18T03:59:46;95.57;;;29.20;;
3175;SDS011;1599;51.564;6.990;2023-11-18T04:02:12;89.00;;;28.63;;
3175;SDS011;1599;51.564;6.990;2023-11-18T04:04:38;73.23;;;27.00;;
3175;SDS011;1599;51.564;6.990;2023-11-18T04:07:04;87.93;;;28.07;;
3175;SDS011;1599;51.564;6.990;2023-11-18T04:09:31;89.23;;;29.23;;
3175;SDS011;1599;51.564;6.990;2023-11-18T04:11:57;74.83;;;27.10;;
3175;SDS011;1599;51.564;6.990;2023-11-18T04:14:23;74.50;;;27.40;;
3175;SDS011;1599;51.564;6.990;2023-11-18T04:16:50;83.43;;;27.47;;
3175;SDS011;1599;51.564;6.990;2023-11-18T04:19:16;85.73;;;28.07;;
3175;SDS011;1599;51.564;6.990;2023-11-18T04:21:43;67.80;;;26.33;;
3175;SDS011;1599;51.564;6.990;2023-11-18T04:24:13;66.93;;;25.03;;
3175;SDS011;1599;51.564;6.990;2023-11-18T04:26:39;75.00;;;24.10;;
3175;SDS011;1599;51.564;6.990;2023-11-18T04:29:06;74.47;;;25.43;;
3175;SDS011;1599;51.564;6.990;2023-11-18T04:31:31;72.30;;;27.03;;
3175;SDS011;1599;51.564;6.990;2023-11-18T04:33:59;83.53;;;29.37;;
3175;SDS011;1599;51.564;6.990;2023-11-18T04:36:25;80.27;;;26.40;;
3175;SDS011;1599;51.564;6.990;2023-11-18T04:38:51;69.43;;;25.87;;
3175;SDS011;1599;51.564;6.990;2023-11-18T04:41:17;75.00;;;25.80;;
3175;SDS011;1599;51.564;6.990;2023-11-18T04:43:43;85.10;;;29.20;;
3175;SDS011;1599;51.564;6.990;2023-11-18T04:46:09;92.03;;;29.00;;
3175;SDS011;1599;51.564;6.990;2023-11-18T04:48:35;65.87;;;25.67;;
3175;SDS011;1599;51.564;6.990;2023-11-18T04:51:01;60.43;;;24.63;;
3175;SDS011;1599;51.564;6.990;2023-11-18T04:53:27;63.50;;;25.50;;
3175;SDS011;1599;51.564;6.990;2023-11-18T04:55:53;52.30;;;23.83;;
3175;SDS011;1599;51.564;6.990;2023-11-18T04:58:19;64.50;;;24.20;;
3175;SDS011;1599;51.564;6.990;2023-11-18T05:00:45;58.27;;;24.63;;
3175;SDS011;1599;51.564;6.990;2023-11-18T05:03:13;65.53;;;25.10;;
3175;SDS011;1599;51.564;6.990;2023-11-18T05:05:39;75.97;;;26.80;;
3175;SDS011;1599;51.564;6.990;2023-11-18T05:08:05;62.57;;;25.20;;
3175;SDS011;1599;51.564;6.990;2023-11-18T05:10:33;61.90;;;24.07;;
3175;SDS011;1599;51.564;6.990;2023-11-18T05:12:59;74.13;;;26.20;;
3175;SDS011;1599;51.564;6.990;2023-11-18T05:15:26;64.73;;;25.60;;
3175;SDS011;1599;51.564;6.990;2023-11-18T05:17:53;55.90;;;23.20;;
3175;SDS011;1599;51.564;6.990;2023-11-18T05:20:19;69.30;;;25.70;;
3175;SDS011;1599;51.564;6.990;2023-11-18T05:22:46;65.90;;;27.20;;
3175;SDS011;1599;51.564;6.990;2023-11-18T05:25:12;72.53;;;25.70;;
3175;SDS011;1599;51.564;6.990;2023-11-18T05:27:38;68.10;;;25.97;;
3175;SDS011;1599;51.564;6.990;2023-11-18T05:30:09;81.80;;;27.60;;
3175;SDS011;1599;51.564;6.990;2023-11-18T05:32:36;66.00;;;26.07;;
3175;SDS011;1599;51.564;6.990;2023-11-18T05:35:02;86.50;;;27.83;;
3175;SDS011;1599;51.564;6.990;2023-11-18T05:37:30;68.73;;;26.83;;
3175;SDS011;1599;51.564;6.990;2023-11-18T05:40:01;62.63;;;24.83;;
3175;SDS011;1599;51.564;6.990;2023-11-18T05:42:35;63.23;;;23.67;;
3175;SDS011;1599;51.564;6.990;2023-11-18T05:45:03;56.10;;;23.87;;
3175;SDS011;1599;51.564;6.990;2023-11-18T05:47:29;58.70;;;26.47;;
3175;SDS011;1599;51.564;6.990;2023-11-18T05:49:55;58.47;;;26.53;;
3175;SDS011;1599;51.564;6.990;2023-11-18T05:52:22;60.33;;;25.17;;
3175;SDS011;1599;51.564;6.990;2023-11-18T05:54:48;52.63;;;25.10;;
3175;SDS011;1599;51.564;6.990;2023-11-18T05:57:17;65.70;;;26.57;;
3175;SDS011;1599;51.564;6.990;2023-11-18T05:59:44;74.27;;;27.80;;
3175;SDS011;1599;51.564;6.990;2023-11-18T06:02:13;68.67;;;26.33;;
3175;SDS011;1599;51.564;6.990;2023-11-18T06:04:43;63.77;;;26.13;;
3175;SDS011;1599;51.564;6.990;2023-11-18T06:07:10;64.73;;;27.20;;
3175;SDS011;1599;51.564;6.990;2023-11-18T06:09:38;71.70;;;27.90;;
3175;SDS011;1599;51.564;6.990;2023-11-18T06:12:08;73.50;;;28.80;;
3175;SDS011;1599;51.564;6.990;2023-11-18T06:14:36;74.30;;;28.30;;
3175;SDS011;1599;51.564;6.990;2023-11-18T06:17:03;77.83;;;29.37;;
3175;SDS011;1599;51.564;6.990;2023-11-18T06:19:28;75.50;;;28.90;;
3175;SDS011;1599;51.564;6.990;2023-11-18T06:21:54;64.33;;;28.13;;
3175;SDS011;1599;51.564;6.990;2023-11-18T06:24:20;65.37;;;28.33;;
3175;SDS011;1599;51.564;6.990;2023-11-18T06:26:46;77.37;;;33.27;;
3175;SDS011;1599;51.564;6.990;2023-11-18T06:29:14;82.93;;;33.17;;
3175;SDS011;1599;51.564;6.990;2023-11-18T06:31:40;70.83;;;32.43;;
3175;SDS011;1599;51.564;6.990;2023-11-18T06:34:07;71.10;;;28.87;;
3175;SDS011;1599;51.564;6.990;2023-11-18T06:36:34;61.80;;;28.67;;
3175;SDS011;1599;51.564;6.990;2023-11-18T06:39:00;68.27;;;28.17;;
3175;SDS011;1599;51.564;6.990;2023-11-18T06:41:26;69.50;;;29.10;;
3175;SDS011;1599;51.564;6.990;2023-11-18T06:43:58;53.87;;;25.70;;
3175;SDS011;1599;51.564;6.990;2023-11-18T06:46:28;61.10;;;27.40;;
3175;SDS011;1599;51.564;6.990;2023-11-18T06:48:58;83.63;;;31.63;;
3175;SDS011;1599;51.564;6.990;2023-11-18T06:51:32;71.40;;;27.97;;
3175;SDS011;1599;51.564;6.990;2023-11-18T06:54:00;90.00;;;32.80;;
3175;SDS011;1599;51.564;6.990;2023-11-18T06:56:39;90.50;;;29.40;;
3175;SDS011;1599;51.564;6.990;2023-11-18T06:59:11;74.70;;;28.07;;
3175;SDS011;1599;51.564;6.990;2023-11-18T07:01:38;54.70;;;24.90;;
3175;SDS011;1599;51.564;6.990;2023-11-18T07:04:08;71.40;;;27.50;;
3175;SDS011;1599;51.564;6.990;2023-11-18T07:06:34;75.93;;;28.00;;
3175;SDS011;1599;51.564;6.990;2023-11-18T07:09:03;68.17;;;28.33;;
3175;SDS011;1599;51.564;6.990;2023-11-18T07:11:45;68.60;;;27.43;;
3175;SDS011;1599;51.564;6.990;2023-11-18T07:14:13;77.83;;;27.37;;
3175;SDS011;1599;51.564;6.990;2023-11-18T07:16:40;71.43;;;26.50;;
3175;SDS011;1599;51.564;6.990;2023-11-18T07:19:06;82.60;;;27.50;;
3175;SDS011;1599;51.564;6.990;2023-11-18T07:21:33;88.07;;;27.43;;
3175;SDS011;1599;51.564;6.990;2023-11-18T07:23:59;67.27;;;24.90;;
3175;SDS011;1599;51.564;6.990;2023-11-18T07:26:27;106.30;;;29.00;;
3175;SDS011;1599;51.564;6.990;2023-11-18T07:28:53;67.03;;;26.77;;
3175;SDS011;1599;51.564;6.990;2023-11-18T07:31:18;64.73;;;25.90;;
3175;SDS011;1599;51.564;6.990;2023-11-18T07:33:45;65.73;;;26.30;;
3175;SDS011;1599;51.564;6.990;2023-11-18T07:36:17;78.27;;;26.53;;
3175;SDS011;1599;51.564;6.990;2023-11-18T07:38:45;64.40;;;24.47;;
3175;SDS011;1599;51.564;6.990;2023-11-18T07:41:11;80.63;;;28.37;;
3175;SDS011;1599;51.564;6.990;2023-11-18T07:43:49;60.87;;;27.30;;
3175;SDS011;1599;51.564;6.990;2023-11-18T07:46:19;74.50;;;27.60;;
3175;SDS011;1599;51.564;6.990;2023-11-18T07:48:51;67.00;;;25.40;;
3175;SDS011;1599;51.564;6.990;2023-11-18T07:51:18;61.80;;;27.37;;
3175;SDS011;1599;51.564;6.990;2023-11-18T07:53:46;61.73;;;26.80;;
3175;SDS011;1599;51.564;6.990;2023-11-18T07:56:15;60.40;;;28.23;;
3175;SDS011;1599;51.564;6.990;2023-11-18T07:58:44;73.70;;;31.80;;
3175;SDS011;1599;51.564;6.990;2023-11-18T08:01:11;70.80;;;29.20;;
3175;SDS011;1599;51.564;6.990;2023-11-18T08:03:38;61.17;;;27.33;;
3175;SDS011;1599;51.564;6.990;2023-11-18T08:06:06;69.13;;;29.17;;
3175;SDS011;1599;51.564;6.990;2023-11-18T08:08:33;70.47;;;29.60;;
3175;SDS011;1599;51.564;6.990;2023-11-18T08:11:02;61.47;;;27.00;;
3175;SDS011;1599;51.564;6.990;2023-11-18T08:13:28;70.37;;;29.40;;
3175;SDS011;1599;51.564;6.990;2023-11-18T08:15:53;65.80;;;28.73;;
3175;SDS011;1599;51.564;6.990;2023-11-18T08:18:19;73.47;;;29.87;;
3175;SDS011;1599;51.564;6.990;2023-11-18T08:20:46;55.50;;;26.70;;
3175;SDS011;1599;51.564;6.990;2023-11-18T08:23:12;57.77;;;26.50;;
3175;SDS011;1599;51.564;6.990;2023-11-18T08:25:38;75.90;;;28.73;;
3175;SDS011;1599;51.564;6.990;2023-11-18T08:28:05;62.30;;;28.40;;
3175;SDS011;1599;51.564;6.990;2023-11-18T08:30:41;61.17;;;29.57;;
3175;SDS011;1599;51.564;6.990;2023-11-18T08:33:07;71.67;;;29.37;;
3175;SDS011;1599;51.564;6.990;2023-11-18T08:35:34;61.43;;;29.33;;
3175;SDS011;1599;51.564;6.990;2023-11-18T08:38:01;66.40;;;28.43;;
3175;SDS011;1599;51.564;6.990;2023-11-18T08:40:28;51.83;;;26.80;;
3175;SDS011;1599;51.564;6.990;2023-11-18T08:42:54;56.07;;;27.07;;
3175;SDS011;1599;51.564;6.990;2023-11-18T08:45:24;63.47;;;28.87;;
3175;SDS011;1599;51.564;6.990;2023-11-18T08:47:58;53.07;;;25.70;;
3175;SDS011;1599;51.564;6.990;2023-11-18T08:50:32;54.87;;;24.93;;
3175;SDS011;1599;51.564;6.990;2023-11-18T08:53:00;51.93;;;23.60;;
3175;SDS011;1599;51.564;6.990;2023-11-18T08:55:30;58.20;;;25.40;;
3175;SDS011;1599;51.564;6.990;2023-11-18T08:58:17;47.73;;;25.40;;
3175;SDS011;1599;51.564;6.990;2023-11-18T09:00:53;58.70;;;24.63;;
3175;SDS011;1599;51.564;6.990;2023-11-18T09:03:38;52.13;;;25.87;;
3175;SDS011;1599;51.564;6.990;2023-11-18T09:06:08;51.70;;;24.23;;
3175;SDS011;1599;51.564;6.990;2023-11-18T09:08:50;46.53;;;23.17;;
3175;SDS011;1599;51.564;6.990;2023-11-18T09:11:21;55.40;;;23.37;;
3175;SDS011;1599;51.564;6.990;2023-11-18T09:13:49;37.97;;;20.83;;
3175;SDS011;1599;51.564;6.990;2023-11-18T09:16:19;48.53;;;22.53;;
3175;SDS011;1599;51.564;6.990;2023-11-18T09:18:47;46.47;;;22.40;;
3175;SDS011;1599;51.564;6.990;2023-11-18T09:21:15;48.97;;;22.10;;
3175;SDS011;1599;51.564;6.990;2023-11-18T09:23:44;46.67;;;21.77;;
3175;SDS011;1599;51.564;6.990;2023-11-18T09:26:12;44.07;;;22.10;;
3175;SDS011;1599;51.564;6.990;2023-11-18T09:28:39;42.73;;;22.03;;
3175;SDS011;1599;51.564;6.990;2023-11-18T09:31:06;45.97;;;20.70;;
3175;SDS011;1599;51.564;6.990;2023-11-18T09:33:36;44.93;;;20.50;;
3175;SDS011;1599;51.564;6.990;2023-11-18T09:36:06;52.67;;;22.83;;
3175;SDS011;1599;51.564;6.990;2023-11-18T09:38:36;38.10;;;20.53;;
3175;SDS011;1599;51.564;6.990;2023-11-18T09:41:05;52.70;;;23.73;;
3175;SDS011;1599;51.564;6.990;2023-11-18T09:43:39;42.60;;;22.80;;
3175;SDS011;1599;51.564;6.990;2023-11-18T09:51:14;40.80;;;21.53;;
3175;SDS011;1599;51.564;6.990;2023-11-18T09:53:48;52.07;;;23.67;;
3175;SDS011;1599;51.564;6.990;2023-11-18T09:56:23;42.50;;;22.83;;
3175;SDS011;1599;51.564;6.990;2023-11-18T09:59:36;40.87;;;21.80;;
3175;SDS011;1599;51.564;6.990;2023-11-18T10:02:36;39.60;;;19.87;;
3175;SDS011;1599;51.564;6.990;2023-11-18T10:05:05;38.33;;;19.27;;
3175;SDS011;1599;51.564;6.990;2023-11-18T10:07:38;39.87;;;21.33;;
3175;SDS011;1599;51.564;6.990;2023-11-18T10:10:06;51.53;;;25.27;;
3175;SDS011;1599;51.564;6.990;2023-11-18T10:12:49;41.53;;;24.47;;
3175;SDS011;1599;51.564;6.990;2023-11-18T10:15:23;36.87;;;22.10;;
3175;SDS011;1599;51.564;6.990;2023-11-18T10:17:50;30.10;;;17.00;;
3175;SDS011;1599;51.564;6.990;2023-11-18T10:23:11;32.63;;;19.60;;
3175;SDS011;1599;51.564;6.990;2023-11-18T10:25:47;30.23;;;15.80;;
3175;SDS011;1599;51.564;6.990;2023-11-18T10:28:22;31.87;;;18.67;;
3175;SDS011;1599;51.564;6.990;2023-11-18T10:31:07;33.30;;;16.90;;
3175;SDS011;1599;51.564;6.990;2023-11-18T10:33:38;26.20;;;14.70;;
3175;SDS011;1599;51.564;6.990;2023-11-18T10:36:18;26.03;;;14.17;;
3175;SDS011;1599;51.564;6.990;2023-11-18T10:38:48;31.23;;;14.63;;
3175;SDS011;1599;51.564;6.990;2023-11-18T10:41:17;25.93;;;13.67;;
3175;SDS011;1599;51.564;6.990;2023-11-18T10:43:47;29.33;;;15.30;;
3175;SDS011;1599;51.564;6.990;2023-11-18T10:46:14;26.20;;;15.47;;
3175;SDS011;1599;51.564;6.990;2023-11-18T10:48:45;25.43;;;14.10;;
3175;SDS011;1599;51.564;6.990;2023-11-18T10:51:16;31.20;;;16.27;;
3175;SDS011;1599;51.564;6.990;2023-11-18T10:53:51;25.90;;;16.97;;
3175;SDS011;1599;51.564;6.990;2023-11-18T10:56:21;29.97;;;14.60;;
3175;SDS011;1599;51.564;6.990;2023-11-18T10:58:57;22.60;;;14.33;;
3175;SDS011;1599;51.564;6.990;2023-11-18T11:04:04;24.37;;;14.00;;
3175;SDS011;1599;51.564;6.990;2023-11-18T11:06:31;21.27;;;12.40;;
3175;SDS011;1599;51.564;6.990;2023-11-18T11:08:59;21.67;;;12.60;;
3175;SDS011;1599;51.564;6.990;2023-11-18T11:11:25;25.97;;;13.37;;
3175;SDS011;1599;51.564;6.990;2023-11-18T11:14:02;21.77;;;12.77;;
3175;SDS011;1599;51.564;6.990;2023-11-18T11:16:33;23.33;;;12.40;;
3175;SDS011;1599;51.564;6.990;2023-11-18T11:19:15;22.70;;;11.87;;
3175;SDS011;1599;51.564;6.990;2023-11-18T11:22:00;19.70;;;11.77;;
3175;SDS011;1599;51.564;6.990;2023-11-18T11:27:59;17.23;;;10.83;;
3175;SDS011;1599;51.564;6.990;2023-11-18T11:33:40;19.97;;;10.90;;
3175;SDS011;1599;51.564;6.990;2023-11-18T11:36:12;18.23;;;11.77;;
3175;SDS011;1599;51.564;6.990;2023-11-18T11:38:52;20.70;;;11.90;;
3175;SDS011;1599;51.564;6.990;2023-11-18T11:41:21;17.77;;;10.67;;
3175;SDS011;1599;51.564;6.990;2023-11-18T11:43:52;18.97;;;12.53;;
3175;SDS011;1599;51.564;6.990;2023-11-18T11:46:23;16.63;;;11.40;;
3175;SDS011;1599;51.564;6.990;2023-11-18T11:48:57;23.43;;;12.30;;
3175;SDS011;1599;51.564;6.990;2023-11-18T11:51:30;22.33;;;11.73;;
3175;SDS011;1599;51.564;6.990;2023-11-18T11:54:11;21.40;;;11.20;;
3175;SDS011;1599;51.564;6.990;2023-11-18T11:56:55;20.23;;;11.03;;
3175;SDS011;1599;51.564;6.990;2023-11-18T12:02:21;29.87;;;15.03;;
3175;SDS011;1599;51.564;6.990;2023-11-18T12:04:51;21.80;;;12.07;;
3175;SDS011;1599;51.564;6.990;2023-11-18T12:07:21;23.73;;;11.30;;
3175;SDS011;1599;51.564;6.990;2023-11-18T12:09:48;18.30;;;11.60;;
3175;SDS011;1599;51.564;6.990;2023-11-18T12:12:19;24.43;;;11.97;;
3175;SDS011;1599;51.564;6.990;2023-11-18T12:14:59;24.87;;;12.40;;
3175;SDS011;1599;51.564;6.990;2023-11-18T12:18:08;19.70;;;10.77;;
3175;SDS011;1599;51.564;6.990;2023-11-18T12:20:42;26.77;;;10.27;;
3175;SDS011;1599;51.564;6.990;2023-11-18T12:23:27;17.43;;;9.00;;
3175;SDS011;1599;51.564;6.990;2023-11-18T12:25:53;16.50;;;9.70;;
3175;SDS011;1599;51.564;6.990;2023-11-18T12:31:00;14.57;;;8.60;;
3175;SDS011;1599;51.564;6.990;2023-11-18T12:42:37;14.60;;;8.30;;
3175;SDS011;1599;51.564;6.990;2023-11-18T12:45:35;19.53;;;8.67;;
3175;SDS011;1599;51.564;6.990;2023-11-18T12:48:44;14.37;;;9.10;;
3175;SDS011;1599;51.564;6.990;2023-11-18T12:51:14;23.23;;;8.33;;
3175;SDS011;1599;51.564;6.990;2023-11-18T12:53:48;19.70;;;8.47;;
3175;SDS011;1599;51.564;6.990;2023-11-18T12:56:19;12.10;;;7.97;;
3175;SDS011;1599;51.564;6.990;2023-11-18T12:58:48;16.00;;;9.07;;
3175;SDS011;1599;51.564;6.990;2023-11-18T13:01:14;16.70;;;8.40;;
3175;SDS011;1599;51.564;6.990;2023-11-18T13:03:40;14.50;;;8.10;;
3175;SDS011;1599;51.564;6.990;2023-11-18T13:06:10;17.00;;;9.03;;
3175;SDS011;1599;51.564;6.990;2023-11-18T13:08:39;18.60;;;8.90;;
3175;SDS011;1599;51.564;6.990;2023-11-18T13:11:06;14.33;;;8.77;;
3175;SDS011;1599;51.564;6.990;2023-11-18T13:13:37;16.73;;;9.07;;
3175;SDS011;1599;51.564;6.990;2023-11-18T13:16:06;16.47;;;9.17;;
3175;SDS011;1599;51.564;6.990;2023-11-18T13:18:42;18.57;;;10.17;;
3175;SDS011;1599;51.564;6.990;2023-11-18T13:21:24;17.10;;;9.43;;
3175;SDS011;1599;51.564;6.990;2023-11-18T13:23:52;14.53;;;9.43;;
3175;SDS011;1599;51.564;6.990;2023-11-18T13:26:18;15.40;;;10.17;;
3175;SDS011;1599;51.564;6.990;2023-11-18T13:28:45;18.50;;;9.87;;
3175;SDS011;1599;51.564;6.990;2023-11-18T13:31:14;15.87;;;9.17;;
3175;SDS011;1599;51.564;6.990;2023-11-18T13:33:43;18.40;;;10.00;;
3175;SDS011;1599;51.564;6.990;2023-11-18T13:36:12;16.30;;;9.70;;
3175;SDS011;1599;51.564;6.990;2023-11-18T13:38:39;17.43;;;8.47;;
3175;SDS011;1599;51.564;6.990;2023-11-18T13:41:06;18.07;;;8.57;;
3175;SDS011;1599;51.564;6.990;2023-11-18T13:43:43;15.73;;;9.47;;
3175;SDS011;1599;51.564;6.990;2023-11-18T13:46:12;15.27;;;8.43;;
3175;SDS011;1599;51.564;6.990;2023-11-18T13:48:39;20.63;;;9.07;;
3175;SDS011;1599;51.564;6.990;2023-11-18T13:51:09;11.83;;;8.23;;
3175;SDS011;1599;51.564;6.990;2023-11-18T13:53:40;11.50;;;9.20;;
3175;SDS011;1599;51.564;6.990;2023-11-18T13:56:12;11.50;;;8.47;;
3175;SDS011;1599;51.564;6.990;2023-11-18T13:58:39;14.63;;;8.53;;
3175;SDS011;1599;51.564;6.990;2023-11-18T14:01:06;16.87;;;9.70;;
3175;SDS011;1599;51.564;6.990;2023-11-18T14:03:36;18.93;;;8.00;;
3175;SDS011;1599;51.564;6.990;2023-11-18T14:06:04;19.83;;;8.40;;
3175;SDS011;1599;51.564;6.990;2023-11-18T14:08:40;13.07;;;7.30;;
3175;SDS011;1599;51.564;6.990;2023-11-18T14:11:07;18.00;;;8.30;;
3175;SDS011;1599;51.564;6.990;2023-11-18T14:13:34;14.30;;;8.97;;
3175;SDS011;1599;51.564;6.990;2023-11-18T14:16:02;13.67;;;8.27;;
3175;SDS011;1599;51.564;6.990;2023-11-18T14:18:29;16.00;;;9.37;;
3175;SDS011;1599;51.564;6.990;2023-11-18T14:20:55;17.13;;;9.37;;
3175;SDS011;1599;51.564;6.990;2023-11-18T14:23:21;15.17;;;9.47;;
3175;SDS011;1599;51.564;6.990;2023-11-18T14:25:48;13.57;;;7.30;;
3175;SDS011;1599;51.564;6.990;2023-11-18T14:28:14;10.00;;;5.70;;
3175;SDS011;1599;51.564;6.990;2023-11-18T14:30:40;10.10;;;5.73;;
3175;SDS011;1599;51.564;6.990;2023-11-18T14:33:07;14.63;;;6.43;;
3175;SDS011;1599;51.564;6.990;2023-11-18T14:35:33;14.37;;;6.37;;
3175;SDS011;1599;51.564;6.990;2023-11-18T14:37:59;9.67;;;6.90;;
3175;SDS011;1599;51.564;6.990;2023-11-18T14:40:28;11.23;;;6.97;;
3175;SDS011;1599;51.564;6.990;2023-11-18T14:42:55;15.30;;;9.37;;
3175;SDS011;1599;51.564;6.990;2023-11-18T14:45:21;14.37;;;6.57;;
3175;SDS011;1599;51.564;6.990;2023-11-18T14:47:47;10.10;;;7.10;;
3175;SDS011;1599;51.564;6.990;2023-11-18T14:50:13;12.03;;;6.83;;
3175;SDS011;1599;51.564;6.990;2023-11-18T14:52:47;12.50;;;7.30;;
3175;SDS011;1599;51.564;6.990;2023-11-18T14:55:16;13.10;;;8.07;;
3175;SDS011;1599;51.564;6.990;2023-11-18T14:57:43;10.40;;;6.80;;
3175;SDS011;1599;51.564;6.990;2023-11-18T15:00:11;13.33;;;5.90;;
3175;SDS011;1599;51.564;6.990;2023-11-18T15:02:47;10.30;;;5.50;;
3175;SDS011;1599;51.564;6.990;2023-11-18T15:05:15;11.70;;;6.60;;
3175;SDS011;1599;51.564;6.990;2023-11-18T15:07:43;11.60;;;5.97;;
3175;SDS011;1599;51.564;6.990;2023-11-18T15:10:16;14.80;;;5.73;;
3175;SDS011;1599;51.564;6.990;2023-11-18T15:12:46;14.90;;;6.40;;
3175;SDS011;1599;51.564;6.990;2023-11-18T15:15:12;13.43;;;5.40;;
3175;SDS011;1599;51.564;6.990;2023-11-18T15:17:43;9.23;;;5.17;;
3175;SDS011;1599;51.564;6.990;2023-11-18T15:20:11;8.47;;;5.30;;
3175;SDS011;1599;51.564;6.990;2023-11-18T15:22:37;7.90;;;5.43;;
3175;SDS011;1599;51.564;6.990;2023-11-18T15:25:04;9.60;;;4.90;;
3175;SDS011;1599;51.564;6.990;2023-11-18T15:27:35;8.63;;;5.23;;
3175;SDS011;1599;51.564;6.990;2023-11-18T15:30:01;7.80;;;5.73;;
3175;SDS011;1599;51.564;6.990;2023-11-18T15:32:27;7.97;;;5.53;;
3175;SDS011;1599;51.564;6.990;2023-11-18T15:34:53;13.50;;;5.80;;
3175;SDS011;1599;51.564;6.990;2023-11-18T15:37:18;12.43;;;5.17;;